createdAt,value
2023-02-07T00:00:26.771Z,102863.06
2023-02-07T00:02:53.316Z,102860.47
2023-02-07T00:08:04.934Z,102855.13
2023-02-07T00:10:34.444Z,102857.22
2023-02-07T00:13:01.030Z,102854.13
2023-02-07T00:15:27.533Z,102846.78
2023-02-07T00:17:54.994Z,102841.50
2023-02-07T00:23:17.427Z,102840.22
2023-02-07T00:25:44.853Z,102838.47
2023-02-07T00:28:12.466Z,102834.88
2023-02-07T00:30:39.093Z,102842.72
2023-02-07T00:33:05.593Z,102838.25
2023-02-07T00:38:15.990Z,102848.09
2023-02-07T00:40:42.509Z,102839.56
2023-02-07T00:43:09.156Z,102847.63
2023-02-07T00:45:36.584Z,102855.94
2023-02-07T00:48:03.330Z,102848.44
2023-02-07T00:53:23.792Z,102843.53
2023-02-07T00:55:50.373Z,102836.78
2023-02-07T00:58:16.875Z,102832.75
2023-02-07T01:00:43.370Z,102835.34
2023-02-07T01:03:09.901Z,102823.75
2023-02-07T01:05:37.612Z,102829.19
2023-02-07T01:08:04.697Z,102830.13
2023-02-07T01:10:31.217Z,102828.19
2023-02-07T01:12:58.634Z,102836.97
2023-02-07T01:15:25.153Z,102840.44
2023-02-07T01:17:52.578Z,102845.44
2023-02-07T01:20:20.032Z,102841.56
2023-02-07T01:22:46.531Z,102845.66
2023-02-07T01:25:13.084Z,102840.91
2023-02-07T01:27:39.593Z,102844.47
2023-02-07T01:30:07.043Z,102845.59
2023-02-07T01:32:34.485Z,102850.88
2023-02-07T01:35:00.994Z,102843.69
2023-02-07T01:37:28.505Z,102841.09
2023-02-07T01:39:55.066Z,102844.91
2023-02-07T01:42:21.593Z,102850.72
2023-02-07T01:44:48.103Z,102845.97
2023-02-07T01:47:15.516Z,102846.94
2023-02-07T01:49:42.009Z,102834.88
2023-02-07T01:52:08.527Z,102835.47
2023-02-07T01:54:35.946Z,102833.53
2023-02-07T01:57:03.324Z,102839.91
2023-02-07T01:59:30.167Z,102846.25
2023-02-07T02:01:56.660Z,102833.88
2023-02-07T02:04:24.054Z,102828.66
2023-02-07T02:06:50.518Z,102837.72
2023-02-07T02:09:16.974Z,102838.25
2023-02-07T02:11:44.448Z,102824.72
2023-02-07T02:14:11.823Z,102825.53
2023-02-07T02:16:38.291Z,102839.56
2023-02-07T02:19:04.803Z,102834.22
2023-02-07T02:21:32.219Z,102832.84
2023-02-07T02:26:53.425Z,102836.72
2023-02-07T02:29:20.879Z,102841.38
2023-02-07T02:31:47.363Z,102838.94
2023-02-07T02:34:13.877Z,102825.53
2023-02-07T02:36:41.296Z,102825.03
2023-02-07T02:41:51.577Z,102821.59
2023-02-07T02:44:18.041Z,102821.47
2023-02-07T02:46:45.484Z,102827.69
2023-02-07T02:49:12.914Z,102822.25
2023-02-07T02:51:40.341Z,102827.16
2023-02-07T02:56:52.050Z,102824.91
2023-02-07T02:59:20.380Z,102828.97
2023-02-07T03:01:46.888Z,102826.88
2023-02-07T03:04:14.368Z,102828.50
2023-02-07T03:06:41.785Z,102824.22
2023-02-07T03:11:52.235Z,102823.03
2023-02-07T03:14:18.664Z,102823.38
2023-02-07T03:16:46.060Z,102827.97
2023-02-07T03:19:12.522Z,102828.66
2023-02-07T03:21:39.901Z,102820.66
2023-02-07T03:27:02.396Z,102802.16
2023-02-07T03:29:28.867Z,102806.09
2023-02-07T03:31:56.237Z,102802.78
2023-02-07T03:34:23.625Z,102796.13
2023-02-07T03:36:51.026Z,102802.28
2023-02-07T03:42:11.624Z,102811.53
2023-02-07T03:44:40.750Z,102809.22
2023-02-07T03:47:08.147Z,102805.28
2023-02-07T03:49:35.497Z,102814.78
2023-02-07T03:52:01.959Z,102814.91
2023-02-07T03:57:23.090Z,102803.47
2023-02-07T03:59:49.595Z,102812.13
2023-02-07T04:02:16.152Z,102810.63
2023-02-07T04:04:43.574Z,102815.38
2023-02-07T04:07:16.191Z,102817.69
2023-02-07T04:12:33.171Z,102816.38
2023-02-07T04:14:59.623Z,102812.13
2023-02-07T04:17:32.169Z,102822.44
2023-02-07T04:19:58.578Z,102821.59
2023-02-07T04:22:25.061Z,102826.16
2023-02-07T04:27:53.232Z,102803.00
2023-02-07T04:30:27.214Z,102803.31
2023-02-07T04:32:54.555Z,102808.53
2023-02-07T04:35:20.994Z,102798.56
2023-02-07T04:37:54.182Z,102793.50
2023-02-07T04:43:11.198Z,102794.16
2023-02-07T04:45:37.858Z,102791.59
2023-02-07T04:48:12.187Z,102792.56
2023-02-07T04:50:39.750Z,102799.38
2023-02-07T04:53:13.197Z,102798.78
2023-02-07T04:58:31.179Z,102795.00
2023-02-07T05:00:58.515Z,102799.91
2023-02-07T05:03:32.184Z,102808.03
2023-02-07T05:05:58.618Z,102805.06
2023-02-07T05:08:26.254Z,102802.03
2023-02-07T05:13:54.206Z,102811.66
2023-02-07T05:16:27.258Z,102819.16
2023-02-07T05:18:54.627Z,102810.81
2023-02-07T05:21:27.192Z,102799.72
2023-02-07T05:23:54.568Z,102812.47
2023-02-07T05:26:28.224Z,102810.50
2023-02-07T05:28:55.474Z,102804.72
2023-02-07T05:31:22.050Z,102805.09
2023-02-07T05:33:56.206Z,102797.16
2023-02-07T05:36:23.484Z,102801.28
2023-02-07T05:38:57.219Z,102798.84
2023-02-07T05:44:15.198Z,102802.03
2023-02-07T05:46:41.665Z,102802.66
2023-02-07T05:49:09.127Z,102805.78
2023-02-07T05:51:35.603Z,102802.66
2023-02-07T05:54:03.010Z,102805.19
2023-02-07T05:59:24.721Z,102806.38
2023-02-07T06:01:51.257Z,102801.50
2023-02-07T06:04:18.621Z,102801.75
2023-02-07T06:06:46.295Z,102798.84
2023-02-07T06:09:13.676Z,102802.91
2023-02-07T06:14:24.427Z,102800.34
2023-02-07T06:16:50.891Z,102804.25
2023-02-07T06:19:18.325Z,102801.94
2023-02-07T06:21:46.752Z,102797.56
2023-02-07T06:24:14.451Z,102792.63
2023-02-07T06:29:35.903Z,102795.53
2023-02-07T06:32:02.426Z,102803.25
2023-02-07T06:34:28.910Z,102793.53
2023-02-07T06:36:55.361Z,102806.84
2023-02-07T06:39:22.767Z,102798.28
2023-02-07T06:44:35.056Z,102804.53
2023-02-07T06:47:02.454Z,102802.38
2023-02-07T06:49:28.935Z,102811.38
2023-02-07T06:51:55.458Z,102816.28
2023-02-07T06:54:22.841Z,102817.28
2023-02-07T06:59:35.243Z,102827.97
2023-02-07T07:02:01.715Z,102829.34
2023-02-07T07:04:28.324Z,102822.28
2023-02-07T07:06:54.775Z,102827.72
2023-02-07T07:09:22.195Z,102826.22
2023-02-07T07:14:43.395Z,102824.88
2023-02-07T07:17:09.930Z,102825.41
2023-02-07T07:19:37.280Z,102825.53
2023-02-07T07:22:04.727Z,102825.41
2023-02-07T07:24:34.287Z,102823.56
2023-02-07T07:29:45.650Z,102827.84
2023-02-07T07:32:17.775Z,102823.56
2023-02-07T07:34:51.667Z,102832.72
2023-02-07T07:37:18.123Z,102833.53
2023-02-07T07:39:44.595Z,102833.16
2023-02-07T07:45:04.998Z,102839.38
2023-02-07T07:47:31.500Z,102848.03
2023-02-07T07:49:58.891Z,102845.53
2023-02-07T07:52:26.271Z,102850.63
2023-02-07T07:54:53.621Z,102856.25
2023-02-07T08:00:05.078Z,102859.50
2023-02-07T08:02:32.474Z,102864.91
2023-02-07T08:04:58.924Z,102866.13
2023-02-07T08:07:26.235Z,102874.97
2023-02-07T08:09:53.616Z,102871.00
2023-02-07T08:15:04.865Z,102882.59
2023-02-07T08:17:31.347Z,102880.84
2023-02-07T08:19:57.807Z,102878.53
2023-02-07T08:22:24.250Z,102874.25
2023-02-07T08:24:50.680Z,102884.25
2023-02-07T08:30:01.982Z,102884.25
2023-02-07T08:32:29.365Z,102892.44
2023-02-07T08:34:56.769Z,102892.09
2023-02-07T08:37:24.161Z,102888.03
2023-02-07T08:39:50.619Z,102890.94
2023-02-07T08:45:02.171Z,102890.59
2023-02-07T08:47:28.720Z,102890.13
2023-02-07T08:49:56.127Z,102885.38
2023-02-07T08:52:23.511Z,102900.56
2023-02-07T08:54:50.932Z,102898.59
2023-02-07T09:00:02.638Z,102898.41
2023-02-07T09:02:30.051Z,102908.09
2023-02-07T09:04:57.433Z,102904.28
2023-02-07T09:07:24.841Z,102914.59
2023-02-07T09:09:51.281Z,102901.84
2023-02-07T09:15:12.789Z,102910.47
2023-02-07T09:17:40.161Z,102911.75
2023-02-07T09:20:06.635Z,102911.97
2023-02-07T09:22:33.146Z,102903.28
2023-02-07T09:25:00.581Z,102904.28
2023-02-07T09:30:13.025Z,102911.63
2023-02-07T09:32:40.402Z,102897.41
2023-02-07T09:35:07.828Z,102898.06
2023-02-07T09:37:48.951Z,102888.38
2023-02-07T09:40:17.288Z,102883.16
2023-02-07T09:45:28.768Z,102883.84
2023-02-07T09:47:56.234Z,102885.44
2023-02-07T09:50:22.771Z,102882.00
2023-02-07T09:52:50.163Z,102883.16
2023-02-07T09:55:16.640Z,102882.31
2023-02-07T10:00:37.380Z,102875.84
2023-02-07T10:03:04.976Z,102879.88
2023-02-07T10:05:32.347Z,102878.06
2023-02-07T10:07:59.748Z,102876.56
2023-02-07T10:10:26.194Z,102872.84
2023-02-07T10:15:47.537Z,102883.09
2023-02-07T10:18:14.848Z,102878.00
2023-02-07T10:20:42.226Z,102870.00
2023-02-07T10:23:08.691Z,102870.00
2023-02-07T10:25:35.268Z,102866.63
2023-02-07T10:28:01.779Z,102872.31
2023-02-07T10:30:29.458Z,102872.31
2023-02-07T10:32:58.445Z,102861.06
2023-02-07T10:35:25.780Z,102863.63
2023-02-07T10:37:54.101Z,102862.00
2023-02-07T10:40:20.614Z,102855.84
2023-02-07T10:42:47.067Z,102858.28
2023-02-07T10:45:14.335Z,102855.16
2023-02-07T10:47:41.628Z,102847.16
2023-02-07T10:50:09.383Z,102852.84
2023-02-07T10:52:36.919Z,102847.28
2023-02-07T10:55:04.268Z,102841.72
2023-02-07T10:57:31.661Z,102845.53
2023-02-07T10:59:59.024Z,102835.22
2023-02-07T11:02:26.347Z,102836.28
2023-02-07T11:04:53.829Z,102833.84
2023-02-07T11:07:21.168Z,102825.19
2023-02-07T11:09:47.608Z,102827.97
2023-02-07T11:12:14.929Z,102833.19
2023-02-07T11:14:45.603Z,102828.75
2023-02-07T11:17:15.152Z,102838.63
2023-02-07T11:19:42.506Z,102829.31
2023-02-07T11:22:08.942Z,102837.84
2023-02-07T11:24:35.362Z,102835.50
2023-02-07T11:27:01.847Z,102835.50
2023-02-07T11:29:29.171Z,102833.19
2023-02-07T11:31:56.439Z,102828.63
2023-02-07T11:34:23.800Z,102830.28
2023-02-07T11:36:51.130Z,102828.44
2023-02-07T11:39:18.405Z,102832.84
2023-02-07T11:41:44.820Z,102829.34
2023-02-07T11:44:12.125Z,102826.22
2023-02-07T11:46:39.422Z,102826.69
2023-02-07T11:49:05.917Z,102820.97
2023-02-07T11:51:32.331Z,102824.75
2023-02-07T11:53:58.936Z,102829.56
2023-02-07T11:56:28.116Z,102819.03
2023-02-07T11:58:54.646Z,102822.28
2023-02-07T12:04:18.963Z,102833.44
2023-02-07T12:06:46.358Z,102832.09
2023-02-07T12:09:16.174Z,102829.44
2023-02-07T12:11:44.455Z,102835.94
2023-02-07T12:14:10.848Z,102828.97
2023-02-07T12:19:21.449Z,102830.22
2023-02-07T12:21:47.941Z,102836.91
2023-02-07T12:24:14.571Z,102840.75
2023-02-07T12:26:41.961Z,102837.25
2023-02-07T12:29:13.695Z,102836.69
2023-02-07T12:34:35.454Z,102843.63
2023-02-07T12:37:04.428Z,102841.06
2023-02-07T12:39:31.588Z,102844.69
2023-02-07T12:41:59.223Z,102843.72
2023-02-07T12:44:25.709Z,102845.31
2023-02-07T12:49:36.979Z,102846.50
2023-02-07T12:52:06.336Z,102847.50
2023-02-07T12:54:33.673Z,102854.19
2023-02-07T12:57:00.130Z,102851.81
2023-02-07T12:59:27.586Z,102854.56
2023-02-07T13:04:38.017Z,102858.47
2023-02-07T13:07:04.462Z,102858.97
2023-02-07T13:09:30.937Z,102859.16
2023-02-07T13:11:58.330Z,102867.88
2023-02-07T13:14:24.799Z,102866.53
2023-02-07T13:19:46.298Z,102872.22
2023-02-07T13:22:13.708Z,102870.19
2023-02-07T13:24:40.196Z,102872.63
2023-02-07T13:27:06.845Z,102866.34
2023-02-07T13:29:34.219Z,102867.53
2023-02-07T13:34:44.779Z,102866.91
2023-02-07T13:37:16.848Z,102858.19
2023-02-07T13:39:44.684Z,102853.53
2023-02-07T13:42:11.116Z,102850.44
2023-02-07T13:44:38.448Z,102854.00
2023-02-07T13:49:50.947Z,102849.69
2023-02-07T13:52:18.314Z,102847.38
2023-02-07T13:54:45.681Z,102848.03
2023-02-07T13:57:12.993Z,102850.63
2023-02-07T13:59:40.416Z,102853.81
2023-02-07T14:05:02.829Z,102860.16
2023-02-07T14:07:29.298Z,102856.69
2023-02-07T14:09:57.620Z,102850.63
2023-02-07T14:12:24.026Z,102850.63
2023-02-07T14:15:01.874Z,102853.06
2023-02-07T14:20:23.496Z,102865.09
2023-02-07T14:22:49.980Z,102874.38
2023-02-07T14:25:17.384Z,102869.88
2023-02-07T14:27:44.769Z,102864.50
2023-02-07T14:30:11.226Z,102873.97
2023-02-07T14:35:31.535Z,102871.91
2023-02-07T14:37:57.986Z,102880.06
2023-02-07T14:40:25.327Z,102880.38
2023-02-07T14:42:52.721Z,102875.19
2023-02-07T14:45:19.195Z,102880.38
2023-02-07T14:50:30.624Z,102885.81
2023-02-07T14:52:57.088Z,102888.72
2023-02-07T14:55:24.944Z,102890.84
2023-02-07T14:57:51.355Z,102893.81
2023-02-07T15:00:17.791Z,102899.34
2023-02-07T15:05:29.694Z,102898.50
2023-02-07T15:07:56.162Z,102892.34
2023-02-07T15:10:23.662Z,102888.53
2023-02-07T15:12:50.106Z,102891.66
2023-02-07T15:15:16.541Z,102887.31
2023-02-07T15:20:38.052Z,102895.09
2023-02-07T15:23:04.679Z,102898.22
2023-02-07T15:25:31.926Z,102900.25
2023-02-07T15:28:01.101Z,102901.56
2023-02-07T15:30:28.563Z,102901.56
2023-02-07T15:35:51.631Z,102907.13
2023-02-07T15:38:18.985Z,102911.88
2023-02-07T15:40:48.906Z,102906.66
2023-02-07T15:43:15.380Z,102909.75
2023-02-07T15:45:42.098Z,102914.63
2023-02-07T15:51:03.587Z,102913.34
2023-02-07T15:53:30.050Z,102917.25
2023-02-07T15:55:56.514Z,102919.19
2023-02-07T15:58:24.065Z,102918.38
2023-02-07T16:00:51.333Z,102920.84
2023-02-07T16:06:03.970Z,102925.56
2023-02-07T16:08:30.466Z,102924.72
2023-02-07T16:10:57.710Z,102935.84
2023-02-07T16:13:26.039Z,102940.59
2023-02-07T16:15:53.358Z,102942.56
2023-02-07T16:21:04.791Z,102946.47
2023-02-07T16:23:31.217Z,102938.13
2023-02-07T16:25:58.492Z,102943.69
2023-02-07T16:28:25.815Z,102956.78
2023-02-07T16:30:52.308Z,102956.78
2023-02-07T16:36:03.578Z,102957.91
2023-02-07T16:38:30.085Z,102968.19
2023-02-07T16:40:57.667Z,102967.06
2023-02-07T16:43:24.958Z,102959.88
2023-02-07T16:45:53.303Z,102960.19
2023-02-07T16:51:16.837Z,102954.19
2023-02-07T16:53:44.285Z,102959.06
2023-02-07T16:56:11.626Z,102961.84
2023-02-07T16:58:38.075Z,102966.22
2023-02-07T17:01:05.445Z,102961.50
2023-02-07T17:06:26.947Z,102972.94
2023-02-07T17:08:54.288Z,102972.63
2023-02-07T17:11:20.703Z,102969.34
2023-02-07T17:13:47.857Z,102972.94
2023-02-07T17:16:14.363Z,102976.84
2023-02-07T17:21:25.950Z,102984.56
2023-02-07T17:23:53.273Z,102986.16
2023-02-07T17:26:22.376Z,102981.13
2023-02-07T17:28:49.601Z,102984.72
2023-02-07T17:31:16.144Z,102989.13
2023-02-07T17:36:36.516Z,102995.00
2023-02-07T17:39:03.283Z,102993.38
2023-02-07T17:41:32.477Z,102999.72
2023-02-07T17:43:58.927Z,103008.56
2023-02-07T17:46:26.252Z,103007.06
2023-02-07T17:51:38.501Z,103013.75
2023-02-07T17:54:05.744Z,103020.16
2023-02-07T17:56:33.210Z,103020.00
2023-02-07T17:58:59.638Z,103033.03
2023-02-07T18:01:26.195Z,103024.19
2023-02-07T18:06:47.703Z,103022.28
2023-02-07T18:09:14.949Z,103021.44
2023-02-07T18:11:43.285Z,103026.63
2023-02-07T18:14:10.739Z,103018.81
2023-02-07T18:16:37.244Z,103026.81
2023-02-07T18:21:50.344Z,103026.75
2023-02-07T18:24:17.615Z,103031.09
2023-02-07T18:26:46.874Z,103028.88
2023-02-07T18:29:14.116Z,103031.13
2023-02-07T18:31:41.461Z,103033.69
2023-02-07T18:34:07.882Z,103033.41
2023-02-07T18:36:34.237Z,103036.38
2023-02-07T18:39:00.632Z,103036.59
2023-02-07T18:41:27.002Z,103039.41
2023-02-07T18:43:53.429Z,103042.06
2023-02-07T18:46:19.900Z,103040.13
2023-02-07T18:48:46.657Z,103041.63
2023-02-07T18:51:13.059Z,103038.66
2023-02-07T18:53:39.411Z,103040.78
2023-02-07T18:56:06.480Z,103032.13
2023-02-07T18:58:33.706Z,103034.19
2023-02-07T19:01:00.082Z,103043.69
2023-02-07T19:03:26.497Z,103043.44
2023-02-07T19:05:52.844Z,103043.56
2023-02-07T19:08:19.240Z,103035.75
2023-02-07T19:10:46.455Z,103038.97
2023-02-07T19:13:13.970Z,103030.19
2023-02-07T19:15:40.345Z,103032.09
2023-02-07T19:18:06.796Z,103034.25
2023-02-07T19:20:33.249Z,103027.66
2023-02-07T19:23:02.425Z,103030.25
2023-02-07T19:25:28.932Z,103033.97
2023-02-07T19:27:56.375Z,103038.88
2023-02-07T19:30:22.839Z,103043.72
2023-02-07T19:32:49.303Z,103052.94
2023-02-07T19:35:15.787Z,103047.81
2023-02-07T19:37:42.251Z,103051.13
2023-02-07T19:40:09.598Z,103056.34
2023-02-07T19:42:37.255Z,103055.34
2023-02-07T19:45:04.637Z,103059.44
2023-02-07T19:47:31.942Z,103056.16
2023-02-07T19:49:58.380Z,103057.19
2023-02-07T19:55:10.381Z,103065.81
2023-02-07T19:57:37.649Z,103063.38
2023-02-07T20:00:07.201Z,103068.78
2023-02-07T20:02:34.619Z,103068.75
2023-02-07T20:05:01.931Z,103066.31
2023-02-07T20:10:25.919Z,103067.00
2023-02-07T20:12:52.508Z,103075.59
2023-02-07T20:15:21.683Z,103075.81
2023-02-07T20:17:48.113Z,103081.50
2023-02-07T20:20:14.619Z,103082.63
2023-02-07T20:25:26.291Z,103080.22
2023-02-07T20:27:52.730Z,103080.00
2023-02-07T20:30:19.205Z,103079.09
2023-02-07T20:32:48.498Z,103079.34
2023-02-07T20:35:15.876Z,103079.00
2023-02-07T20:40:39.363Z,103084.44
2023-02-07T20:43:07.062Z,103080.19
2023-02-07T20:45:36.252Z,103093.72
2023-02-07T20:48:04.562Z,103091.13
2023-02-07T20:50:30.994Z,103097.66
2023-02-07T20:55:44.851Z,103095.53
2023-02-07T20:58:14.137Z,103098.31
2023-02-07T21:00:41.014Z,103102.88
2023-02-07T21:03:08.453Z,103105.53
2023-02-07T21:05:34.927Z,103116.50
2023-02-07T21:10:48.727Z,103133.59
2023-02-07T21:13:16.085Z,103134.25
2023-02-07T21:15:43.425Z,103135.72
2023-02-07T21:18:12.568Z,103143.41
2023-02-07T21:20:39.255Z,103139.56
2023-02-07T21:25:50.498Z,103130.97
2023-02-07T21:28:17.867Z,103134.13
2023-02-07T21:30:45.348Z,103128.59
2023-02-07T21:33:12.723Z,103137.09
2023-02-07T21:35:40.028Z,103125.16
2023-02-07T21:41:02.065Z,103140.50
2023-02-07T21:43:29.636Z,103136.09
2023-02-07T21:45:56.079Z,103134.44
2023-02-07T21:48:22.603Z,103142.28
2023-02-07T21:50:49.265Z,103142.44
2023-02-07T21:56:00.122Z,103132.41
2023-02-07T21:58:28.047Z,103137.69
2023-02-07T22:00:54.559Z,103136.28
2023-02-07T22:03:21.064Z,103137.16
2023-02-07T22:05:47.515Z,103136.56
2023-02-07T22:11:09.061Z,103148.00
2023-02-07T22:13:35.696Z,103148.66
2023-02-07T22:16:03.136Z,103149.28
2023-02-07T22:18:30.525Z,103152.06
2023-02-07T22:20:56.988Z,103149.31
2023-02-07T22:26:07.470Z,103162.88
2023-02-07T22:28:33.897Z,103166.47
2023-02-07T22:31:03.169Z,103174.47
2023-02-07T22:33:30.505Z,103168.91
2023-02-07T22:35:57.891Z,103169.75
2023-02-07T22:41:22.917Z,103179.22
2023-02-07T22:43:51.259Z,103178.72
2023-02-07T22:46:17.747Z,103176.75
2023-02-07T22:48:45.186Z,103176.59
2023-02-07T22:51:12.572Z,103174.75
2023-02-07T22:56:32.923Z,103187.53
2023-02-07T22:58:59.568Z,103187.84
2023-02-07T23:01:26.045Z,103192.78
2023-02-07T23:03:53.515Z,103184.41
2023-02-07T23:06:20.022Z,103185.56
2023-02-07T23:11:31.606Z,103186.75
2023-02-07T23:13:58.931Z,103181.81
2023-02-07T23:16:26.169Z,103181.19
2023-02-07T23:18:52.687Z,103186.72
2023-02-07T23:21:20.983Z,103189.50
2023-02-07T23:26:44.237Z,103193.72
2023-02-07T23:29:10.722Z,103193.25
2023-02-07T23:31:39.907Z,103188.66
2023-02-07T23:34:08.272Z,103191.13
2023-02-07T23:36:36.542Z,103188.19
2023-02-07T23:41:48.691Z,103191.81
2023-02-07T23:44:17.849Z,103193.75
2023-02-07T23:46:46.133Z,103186.75
2023-02-07T23:49:14.465Z,103191.28
2023-02-07T23:51:43.034Z,103192.59
2023-02-07T23:56:55.319Z,103195.06
2023-02-07T23:59:21.710Z,103200.13
